createdAt,value
2018-07-25T00:01:12.168Z,2.85
2018-07-25T00:03:43.451Z,2.67
2018-07-25T00:06:12.256Z,3.35
2018-07-25T00:08:41.419Z,2.10
2018-07-25T00:11:10.555Z,2.98
2018-07-25T00:13:39.755Z,2.52
2018-07-25T00:16:08.960Z,2.80
2018-07-25T00:18:37.528Z,3.08
2018-07-25T00:21:07.280Z,3.47
2018-07-25T00:23:39.008Z,2.22
2018-07-25T00:26:13.329Z,2.47
2018-07-25T00:28:41.612Z,2.87
2018-07-25T00:31:10.196Z,2.85
2018-07-25T00:33:45.541Z,2.20
2018-07-25T00:36:15.751Z,3.77
2018-07-25T00:38:44.597Z,2.47
2018-07-25T00:41:13.182Z,2.15
2018-07-25T00:43:41.844Z,2.33
2018-07-25T00:46:10.537Z,3.35
2018-07-25T00:48:39.259Z,2.42
2018-07-25T00:51:11.014Z,2.75
2018-07-25T00:53:45.653Z,2.37
2018-07-25T00:56:14.624Z,4.17
2018-07-25T00:58:44.339Z,2.30
2018-07-25T01:01:13.012Z,2.17
2018-07-25T01:03:41.750Z,3.45
2018-07-25T01:06:10.525Z,5.22
2018-07-25T01:08:40.312Z,1.75
2018-07-25T01:11:08.937Z,3.67
2018-07-25T01:13:38.867Z,2.50
2018-07-25T01:16:09.991Z,3.60
2018-07-25T01:18:38.944Z,2.80
2018-07-25T01:21:10.129Z,3.80
2018-07-25T01:23:39.013Z,2.85
2018-07-25T01:26:07.810Z,3.22
2018-07-25T01:28:37.416Z,2.77
2018-07-25T01:31:07.537Z,2.40
2018-07-25T01:33:35.814Z,1.62
2018-07-25T01:36:07.605Z,3.22
2018-07-25T01:38:36.378Z,2.05
2018-07-25T01:41:04.968Z,3.90
2018-07-25T01:43:34.050Z,3.10
2018-07-25T01:46:02.635Z,3.15
2018-07-25T01:48:31.313Z,2.27
2018-07-25T01:50:59.957Z,2.87
2018-07-25T01:53:28.680Z,3.17
2018-07-25T01:55:57.375Z,3.10
2018-07-25T01:58:25.961Z,2.40
2018-07-25T02:00:54.778Z,3.70
2018-07-25T02:03:23.544Z,5.83
2018-07-25T02:05:52.184Z,3.08
2018-07-25T02:08:21.812Z,3.10
2018-07-25T02:10:49.992Z,4.08
2018-07-25T02:13:18.678Z,2.77
2018-07-25T02:15:48.691Z,3.00
2018-07-25T02:18:17.048Z,3.85
2018-07-25T02:20:46.985Z,4.05
2018-07-25T02:23:15.593Z,3.12
2018-07-25T02:25:45.453Z,3.75
2018-07-25T02:28:15.563Z,3.60
2018-07-25T02:30:47.153Z,2.67
2018-07-25T02:33:16.188Z,3.90
2018-07-25T02:35:45.968Z,3.33
2018-07-25T02:38:15.428Z,4.12
2018-07-25T02:40:44.180Z,4.10
2018-07-25T02:43:12.704Z,3.72
2018-07-25T02:45:45.454Z,3.20
2018-07-25T02:48:15.137Z,3.60
2018-07-25T02:50:45.201Z,4.60
2018-07-25T02:53:14.033Z,3.80
2018-07-25T02:55:42.649Z,4.17
2018-07-25T02:58:11.365Z,4.08
2018-07-25T03:00:47.362Z,5.17
2018-07-25T03:04:43.530Z,6.12
2018-07-25T03:07:12.509Z,2.92
2018-07-25T03:09:41.085Z,4.53
2018-07-25T03:12:09.785Z,2.65
2018-07-25T03:14:38.886Z,3.45
2018-07-25T03:17:22.657Z,3.05
2018-07-25T03:21:15.860Z,4.28
2018-07-25T03:23:44.871Z,4.42
2018-07-25T03:26:13.361Z,3.40
2018-07-25T03:28:42.286Z,3.58
2018-07-25T03:31:16.592Z,3.12
2018-07-25T03:33:45.752Z,3.35
2018-07-25T03:36:17.418Z,3.17
2018-07-25T03:38:47.299Z,4.60
2018-07-25T03:41:23.693Z,6.10
2018-07-25T03:43:52.871Z,3.72
2018-07-25T03:46:27.130Z,2.83
2018-07-25T03:49:02.925Z,3.67
2018-07-25T03:51:34.512Z,2.27
2018-07-25T03:54:05.910Z,5.58
2018-07-25T03:56:40.922Z,3.50
2018-07-25T03:59:18.863Z,4.60
2018-07-25T04:01:48.162Z,4.78
2018-07-25T04:04:19.960Z,6.58
2018-07-25T04:06:52.337Z,3.72
2018-07-25T04:09:24.444Z,4.22
2018-07-25T04:11:56.158Z,2.08
2018-07-25T04:14:24.921Z,3.20
2018-07-25T04:16:59.212Z,4.22
2018-07-25T04:19:42.437Z,3.02
2018-07-25T04:22:18.679Z,2.45
2018-07-25T04:24:47.148Z,4.00
2018-07-25T04:27:16.889Z,1.80
2018-07-25T04:29:48.888Z,4.12
2018-07-25T04:32:17.552Z,4.00
2018-07-25T04:34:46.461Z,2.45
2018-07-25T04:37:18.084Z,3.85
2018-07-25T04:39:46.668Z,4.60
2018-07-25T04:42:33.615Z,4.08
2018-07-25T04:45:08.518Z,5.47
2018-07-25T04:47:37.659Z,3.58
2018-07-25T04:50:09.201Z,4.60
2018-07-25T04:52:39.051Z,3.70
2018-07-25T04:55:07.668Z,3.27
2018-07-25T04:57:36.214Z,3.40
2018-07-25T05:00:05.518Z,5.17
2018-07-25T05:02:33.860Z,3.30
2018-07-25T05:05:08.698Z,3.10
2018-07-25T05:07:37.751Z,3.45
2018-07-25T05:10:06.473Z,3.05
2018-07-25T05:12:35.067Z,4.08
2018-07-25T05:15:03.737Z,3.12
2018-07-25T05:17:33.460Z,2.83
2018-07-25T05:20:02.053Z,4.33
2018-07-25T05:22:33.813Z,1.92
2018-07-25T05:29:26.688Z,3.33
2018-07-25T05:31:56.374Z,3.50
2018-07-25T05:34:28.053Z,3.80
2018-07-25T05:36:57.040Z,4.53
2018-07-25T05:39:40.685Z,2.83
2018-07-25T05:42:09.522Z,2.42
2018-07-25T05:44:41.109Z,5.65
2018-07-25T05:47:09.706Z,3.45
2018-07-25T05:49:38.347Z,1.90
2018-07-25T05:52:07.204Z,2.80
2018-07-25T05:54:36.785Z,3.02
2018-07-25T05:57:06.603Z,2.08
2018-07-25T05:59:35.524Z,4.58
2018-07-25T06:02:05.039Z,3.12
2018-07-25T06:04:35.630Z,3.10
2018-07-25T06:07:04.621Z,1.72
2018-07-25T06:09:34.225Z,3.62
2018-07-25T06:12:05.544Z,2.58
2018-07-25T06:14:37.086Z,4.60
2018-07-25T06:17:05.520Z,4.85
2018-07-25T06:19:37.201Z,3.00
2018-07-25T06:22:06.121Z,4.12
2018-07-25T06:24:34.804Z,3.10
2018-07-25T06:27:03.449Z,2.72
2018-07-25T06:29:32.615Z,4.15
2018-07-25T06:32:01.805Z,3.27
2018-07-25T06:34:31.686Z,3.08
2018-07-25T06:37:00.279Z,2.58
2018-07-25T06:39:29.009Z,2.30
2018-07-25T06:41:57.708Z,2.50
2018-07-25T06:44:27.489Z,4.33
2018-07-25T06:46:57.201Z,2.75
2018-07-25T06:49:25.953Z,3.92
2018-07-25T06:51:54.693Z,2.70
2018-07-25T06:54:23.646Z,1.98
2018-07-25T06:56:52.588Z,2.98
2018-07-25T06:59:22.396Z,3.30
2018-07-25T07:01:53.652Z,2.45
2018-07-25T07:04:23.476Z,3.85
2018-07-25T07:06:52.222Z,4.72
2018-07-25T07:09:21.020Z,2.77
2018-07-25T07:11:49.979Z,2.17
2018-07-25T07:14:18.678Z,3.00
2018-07-25T07:16:47.258Z,2.30
2018-07-25T07:19:17.052Z,2.33
2018-07-25T07:21:45.782Z,2.85
2018-07-25T07:24:14.456Z,1.67
2018-07-25T07:26:43.118Z,1.42
2018-07-25T07:29:11.805Z,1.82
2018-07-25T07:31:40.509Z,2.08
2018-07-25T07:34:09.077Z,1.90
2018-07-25T07:36:37.736Z,2.10
2018-07-25T07:39:11.592Z,2.83
2018-07-25T07:41:43.401Z,3.17
2018-07-25T07:44:12.083Z,1.52
2018-07-25T07:46:40.732Z,1.45
2018-07-25T07:49:09.300Z,1.32
2018-07-25T07:51:38.226Z,2.30
2018-07-25T07:54:07.755Z,2.65
2018-07-25T07:56:36.585Z,2.08
2018-07-25T07:59:05.401Z,2.30
2018-07-25T08:01:35.139Z,1.32
2018-07-25T08:04:04.955Z,2.02
2018-07-25T08:06:33.414Z,1.90
2018-07-25T08:09:03.477Z,1.35
2018-07-25T08:11:31.870Z,1.90
2018-07-25T08:14:00.804Z,2.17
2018-07-25T08:16:29.475Z,1.92
2018-07-25T08:18:58.180Z,2.10
2018-07-25T08:21:27.145Z,2.00
2018-07-25T08:23:55.648Z,1.27
2018-07-25T08:26:24.447Z,1.10
2018-07-25T08:28:53.041Z,1.57
2018-07-25T08:31:24.800Z,0.80
2018-07-25T08:33:53.553Z,1.02
2018-07-25T08:36:22.238Z,2.58
2018-07-25T08:38:54.113Z,1.50
2018-07-25T08:41:23.786Z,1.32
2018-07-25T08:43:52.358Z,0.95
2018-07-25T08:46:21.038Z,0.80
2018-07-25T08:48:49.730Z,2.12
2018-07-25T08:51:18.541Z,0.57
2018-07-25T08:53:47.133Z,0.90
2018-07-25T08:56:18.852Z,0.82
2018-07-25T08:58:47.652Z,1.45
2018-07-25T09:01:16.265Z,1.05
2018-07-25T09:03:45.958Z,1.00
2018-07-25T09:06:14.641Z,0.50
2018-07-25T09:08:43.780Z,0.55
2018-07-25T09:11:13.089Z,1.17
2018-07-25T09:13:41.833Z,0.40
2018-07-25T09:16:10.725Z,1.02
2018-07-25T09:18:39.131Z,0.50
2018-07-25T09:21:08.138Z,0.55
2018-07-25T09:23:36.726Z,0.60
2018-07-25T09:26:06.392Z,1.00
2018-07-25T09:28:35.277Z,0.65
2018-07-25T09:31:04.137Z,0.50
2018-07-25T09:33:32.821Z,0.33
2018-07-25T09:36:01.610Z,0.60
2018-07-25T09:38:30.240Z,0.45
2018-07-25T09:40:58.895Z,0.57
2018-07-25T09:43:27.617Z,0.65
2018-07-25T09:45:56.603Z,0.55
2018-07-25T09:48:25.294Z,0.40
2018-07-25T09:50:53.875Z,0.20
2018-07-25T09:53:22.926Z,0.40
2018-07-25T09:55:51.498Z,0.80
2018-07-25T09:58:21.365Z,0.37
2018-07-25T10:00:50.985Z,0.20
2018-07-25T10:03:20.393Z,0.47
2018-07-25T10:05:49.544Z,0.55
2018-07-25T10:08:19.636Z,0.00
2018-07-25T10:10:51.382Z,0.50
2018-07-25T10:13:21.338Z,0.17
2018-07-25T10:15:49.737Z,0.30
2018-07-25T10:18:24.054Z,0.10
2018-07-25T10:20:58.553Z,0.88
2018-07-25T10:23:28.136Z,0.30
2018-07-25T10:25:56.539Z,0.30
2018-07-25T10:28:25.409Z,0.17
2018-07-25T10:30:54.104Z,0.47
2018-07-25T10:33:22.805Z,0.75
2018-07-25T10:35:51.581Z,0.45
2018-07-25T10:38:20.293Z,0.60
2018-07-25T10:40:49.942Z,0.40
2018-07-25T10:43:18.705Z,0.75
2018-07-25T10:45:50.495Z,0.68
2018-07-25T10:48:19.218Z,0.55
2018-07-25T10:50:48.009Z,0.00
2018-07-25T10:53:16.748Z,0.40
2018-07-25T10:55:45.431Z,0.28
2018-07-25T10:58:15.255Z,0.60
2018-07-25T11:00:43.752Z,0.08
2018-07-25T11:03:12.332Z,0.70
2018-07-25T11:05:42.103Z,0.20
2018-07-25T11:08:10.704Z,0.37
2018-07-25T11:10:40.385Z,0.35
2018-07-25T11:13:09.073Z,0.57
2018-07-25T11:15:37.856Z,0.40
2018-07-25T11:18:11.929Z,0.47
2018-07-25T11:20:40.994Z,0.42
2018-07-25T11:23:10.859Z,0.08
2018-07-25T11:25:39.611Z,0.80
2018-07-25T11:28:11.305Z,0.30
2018-07-25T11:30:43.268Z,0.15
2018-07-25T11:33:12.953Z,0.37
2018-07-25T11:35:41.588Z,0.70
2018-07-25T11:38:12.272Z,0.23
2018-07-25T11:40:41.104Z,0.08
2018-07-25T11:43:09.800Z,0.45
2018-07-25T11:45:38.696Z,0.40
2018-07-25T11:48:07.434Z,0.20
2018-07-25T11:50:36.101Z,1.37
2018-07-25T11:53:05.897Z,0.47
2018-07-25T11:55:34.798Z,1.15
2018-07-25T11:58:03.054Z,0.40
2018-07-25T12:00:32.025Z,1.20
2018-07-25T12:03:00.629Z,1.12
2018-07-25T12:05:29.274Z,0.93
2018-07-25T12:07:58.127Z,0.50
2018-07-25T12:10:26.610Z,1.40
2018-07-25T12:12:55.374Z,0.68
2018-07-25T12:15:24.239Z,1.87
2018-07-25T12:17:52.827Z,0.45
2018-07-25T12:20:21.604Z,1.02
2018-07-25T12:22:50.400Z,0.62
2018-07-25T12:25:19.216Z,0.65
2018-07-25T12:27:47.917Z,0.57
2018-07-25T12:30:16.600Z,0.70
2018-07-25T12:32:45.401Z,0.30
2018-07-25T12:35:14.563Z,0.47
2018-07-25T12:37:44.568Z,0.70
2018-07-25T12:40:13.762Z,1.00
2018-07-25T12:42:43.527Z,0.80
2018-07-25T12:45:12.409Z,0.68
2018-07-25T12:47:41.093Z,1.77
2018-07-25T12:50:09.783Z,0.23
2018-07-25T12:52:38.645Z,0.95
2018-07-25T12:55:07.453Z,0.70
2018-07-25T12:57:36.284Z,1.05
2018-07-25T13:00:06.914Z,0.40
2018-07-25T13:02:35.841Z,0.20
2018-07-25T13:05:04.657Z,0.30
2018-07-25T13:07:33.942Z,0.57
2018-07-25T13:10:02.747Z,0.23
2018-07-25T13:12:31.329Z,0.78
2018-07-25T13:15:00.193Z,0.60
2018-07-25T13:17:29.274Z,0.03
2018-07-25T13:19:57.675Z,1.25
2018-07-25T13:22:26.671Z,0.45
2018-07-25T13:24:57.983Z,0.65
2018-07-25T13:27:26.829Z,0.37
2018-07-25T13:29:55.524Z,1.17
2018-07-25T13:32:24.842Z,0.47
2018-07-25T13:34:53.836Z,0.80
2018-07-25T13:37:22.560Z,0.08
2018-07-25T13:39:51.309Z,0.20
2018-07-25T13:42:20.135Z,1.02
2018-07-25T13:44:48.938Z,0.42
2018-07-25T13:47:17.390Z,0.80
2018-07-25T13:49:47.070Z,0.70
2018-07-25T13:52:15.979Z,1.40
2018-07-25T13:54:44.845Z,1.02
2018-07-25T13:57:13.511Z,0.72
2018-07-25T13:59:43.544Z,0.93
2018-07-25T14:02:12.183Z,0.53
2018-07-25T14:04:41.104Z,1.05
2018-07-25T14:07:09.893Z,1.22
2018-07-25T14:09:38.550Z,0.47
2018-07-25T14:12:07.554Z,0.50
2018-07-25T14:14:36.072Z,0.80
2018-07-25T14:17:04.810Z,1.15
2018-07-25T14:19:33.416Z,0.70
2018-07-25T14:22:02.337Z,0.53
2018-07-25T14:24:30.995Z,0.78
2018-07-25T14:26:59.589Z,0.50
2018-07-25T14:29:28.319Z,0.55
2018-07-25T14:31:56.910Z,0.33
2018-07-25T14:34:25.714Z,0.25
2018-07-25T14:36:54.345Z,0.72
2018-07-25T14:39:23.125Z,0.50
2018-07-25T14:41:51.812Z,0.95
2018-07-25T14:44:21.654Z,0.47
2018-07-25T14:46:53.430Z,0.93
2018-07-25T14:49:23.149Z,0.55
2018-07-25T14:51:51.869Z,0.37
2018-07-25T14:54:20.577Z,0.93
2018-07-25T14:56:49.486Z,0.72
2018-07-25T14:59:18.321Z,0.50
2018-07-25T15:01:46.884Z,0.72
2018-07-25T15:04:19.098Z,0.60
2018-07-25T15:06:47.704Z,0.35
2018-07-25T15:09:16.465Z,0.85
2018-07-25T15:11:45.771Z,0.35
2018-07-25T15:14:14.238Z,0.55
2018-07-25T15:16:43.409Z,1.20
2018-07-25T15:19:12.902Z,0.82
2018-07-25T15:21:41.703Z,0.40
2018-07-25T15:24:11.434Z,0.37
2018-07-25T15:26:39.983Z,0.55
2018-07-25T15:29:09.694Z,0.33
2018-07-25T15:31:39.318Z,0.53
2018-07-25T15:34:08.337Z,0.62
2018-07-25T15:36:41.394Z,0.55
2018-07-25T15:39:15.559Z,0.98
2018-07-25T15:41:46.533Z,0.70
2018-07-25T15:44:15.990Z,0.68
2018-07-25T15:46:45.278Z,0.53
2018-07-25T15:49:14.064Z,0.75
2018-07-25T15:51:48.119Z,0.30
2018-07-25T15:54:17.335Z,0.50
2018-07-25T15:56:46.081Z,0.75
2018-07-25T15:59:15.460Z,0.55
2018-07-25T16:03:08.629Z,0.53
2018-07-25T16:05:37.117Z,0.65
2018-07-25T16:08:07.860Z,1.17
2018-07-25T16:10:42.035Z,0.90
2018-07-25T16:13:16.478Z,1.02
2018-07-25T16:15:44.760Z,0.57
2018-07-25T16:18:16.450Z,0.65
2018-07-25T16:20:46.240Z,0.78
2018-07-25T16:23:17.891Z,0.62
2018-07-25T16:25:49.539Z,0.30
2018-07-25T16:28:18.128Z,1.07
2018-07-25T16:30:49.811Z,0.60
2018-07-25T16:33:19.409Z,0.90
2018-07-25T16:35:48.202Z,0.30
2018-07-25T16:38:22.461Z,0.37
2018-07-25T16:40:52.533Z,1.12
2018-07-25T16:43:26.916Z,0.72
2018-07-25T16:45:56.127Z,0.20
2018-07-25T16:48:25.011Z,1.17
2018-07-25T16:50:53.777Z,0.30
2018-07-25T16:53:28.148Z,0.75
2018-07-25T16:56:00.279Z,0.75
2018-07-25T16:58:29.045Z,0.45
2018-07-25T17:00:58.713Z,1.00
2018-07-25T17:03:28.453Z,0.25
2018-07-25T17:05:58.059Z,0.45
2018-07-25T17:08:29.061Z,0.50
2018-07-25T17:11:00.616Z,1.10
2018-07-25T17:13:35.051Z,0.57
2018-07-25T17:16:15.250Z,0.88
2018-07-25T17:18:45.065Z,0.03
2018-07-25T17:21:13.706Z,0.53
2018-07-25T17:23:41.789Z,0.95
2018-07-25T17:26:10.209Z,0.03
2018-07-25T17:28:43.338Z,0.30
2018-07-25T17:31:11.654Z,0.70
2018-07-25T17:33:40.321Z,0.20
2018-07-25T17:36:09.896Z,0.60
2018-07-25T17:38:38.764Z,0.37
2018-07-25T17:41:08.406Z,0.20
2018-07-25T17:43:36.991Z,1.70
2018-07-25T17:46:06.705Z,0.85
2018-07-25T17:48:35.539Z,0.30
2018-07-25T17:51:04.256Z,0.40
2018-07-25T17:53:33.077Z,0.50
2018-07-25T17:56:01.754Z,0.37
2018-07-25T17:58:30.602Z,1.02
2018-07-25T18:00:59.362Z,0.60
2018-07-25T18:03:28.092Z,1.05
2018-07-25T18:05:56.480Z,0.17
2018-07-25T18:08:25.088Z,1.42
2018-07-25T18:10:56.764Z,0.53
2018-07-25T18:13:30.876Z,0.40
2018-07-25T18:16:00.065Z,0.37
2018-07-25T18:18:29.748Z,0.60
2018-07-25T18:20:58.795Z,0.53
2018-07-25T18:23:30.075Z,0.53
2018-07-25T18:25:58.802Z,0.50
2018-07-25T18:28:27.340Z,0.33
2018-07-25T18:30:56.072Z,0.57
2018-07-25T18:33:24.839Z,0.10
2018-07-25T18:35:53.855Z,0.40
2018-07-25T18:38:23.179Z,0.60
2018-07-25T18:40:51.496Z,0.30
2018-07-25T18:43:20.370Z,1.12
2018-07-25T18:45:49.050Z,0.50
2018-07-25T18:48:18.229Z,1.00
2018-07-25T18:50:48.581Z,0.62
2018-07-25T18:53:17.328Z,0.10
2018-07-25T18:55:46.243Z,0.47
2018-07-25T18:58:14.899Z,0.40
2018-07-25T19:00:44.803Z,0.42
2018-07-25T19:03:15.182Z,1.55
2018-07-25T19:05:44.084Z,0.33
2018-07-25T19:08:12.973Z,0.60
2018-07-25T19:10:42.628Z,0.60
2018-07-25T19:13:17.387Z,0.82
2018-07-25T19:15:46.041Z,0.60
2018-07-25T19:18:14.872Z,0.28
2018-07-25T19:20:43.972Z,0.10
2018-07-25T19:23:12.498Z,0.95
2018-07-25T19:25:41.255Z,0.25
2018-07-25T19:28:09.763Z,0.33
2018-07-25T19:30:38.737Z,0.25
2018-07-25T19:33:07.113Z,0.50
2018-07-25T19:35:36.091Z,0.37
2018-07-25T19:38:07.753Z,0.42
2018-07-25T19:40:40.766Z,0.72
2018-07-25T19:43:12.252Z,0.47
2018-07-25T19:45:44.149Z,0.93
2018-07-25T19:48:13.915Z,0.45
2018-07-25T19:50:58.568Z,0.53
2018-07-25T19:53:27.133Z,0.35
2018-07-25T19:55:55.839Z,3.98
2018-07-25T19:58:24.520Z,0.98
2018-07-25T20:00:56.427Z,1.12
2018-07-25T20:03:30.494Z,0.35
2018-07-25T20:06:12.938Z,0.62
2018-07-25T20:08:47.014Z,0.72
2018-07-25T20:11:16.290Z,1.65
2018-07-25T20:13:50.633Z,0.40
2018-07-25T20:16:20.741Z,0.23
2018-07-25T20:18:52.675Z,0.72
2018-07-25T20:21:24.534Z,0.57
2018-07-25T20:23:56.357Z,0.80
2018-07-25T20:26:30.552Z,0.40
2018-07-25T20:29:00.817Z,0.33
2018-07-25T20:31:30.312Z,0.80
2018-07-25T20:34:08.062Z,0.57
2018-07-25T20:36:36.618Z,0.50
2018-07-25T20:39:17.118Z,0.82
2018-07-25T20:41:55.532Z,0.72
2018-07-25T20:44:27.458Z,0.50
2018-07-25T20:47:13.431Z,0.17
2018-07-25T20:49:47.576Z,0.85
2018-07-25T20:52:16.759Z,0.20
2018-07-25T20:54:52.949Z,0.70
2018-07-25T20:57:27.581Z,0.78
2018-07-25T20:59:59.117Z,0.78
2018-07-25T21:02:34.840Z,1.10
2018-07-25T21:05:18.219Z,0.45
2018-07-25T21:07:47.707Z,0.82
2018-07-25T21:10:28.642Z,0.62
2018-07-25T21:13:02.704Z,1.30
2018-07-25T21:15:37.433Z,0.55
2018-07-25T21:18:23.703Z,0.80
2018-07-25T21:20:59.790Z,0.88
2018-07-25T21:23:34.315Z,1.25
2018-07-25T21:26:10.031Z,0.75
2018-07-25T21:28:43.767Z,1.27
2018-07-25T21:31:15.862Z,0.62
2018-07-25T21:33:56.587Z,0.68
2018-07-25T21:36:26.446Z,0.82
2018-07-25T21:39:00.468Z,0.60
2018-07-25T21:41:31.356Z,0.47
2018-07-25T21:44:18.730Z,1.15
2018-07-25T21:46:49.924Z,0.47
2018-07-25T21:49:18.647Z,0.98
2018-07-25T21:52:00.532Z,0.75
2018-07-25T21:54:28.888Z,0.95
2018-07-25T21:57:09.759Z,1.98
2018-07-25T21:59:39.235Z,1.00
2018-07-25T22:02:08.087Z,0.90
2018-07-25T22:04:42.302Z,0.62
2018-07-25T22:07:11.359Z,0.95
2018-07-25T22:09:45.450Z,0.62
2018-07-25T22:12:14.839Z,2.27
2018-07-25T22:14:44.446Z,0.95
2018-07-25T22:17:13.502Z,2.22
2018-07-25T22:19:48.315Z,1.35
2018-07-25T22:22:17.631Z,1.12
2018-07-25T22:24:47.317Z,1.15
2018-07-25T22:27:21.526Z,0.98
2018-07-25T22:29:50.581Z,1.17
2018-07-25T22:32:21.668Z,1.47
2018-07-25T22:34:49.995Z,1.20
2018-07-25T22:37:24.328Z,2.08
2018-07-25T22:39:58.042Z,2.05
2018-07-25T22:42:34.710Z,3.08
2018-07-25T22:45:03.783Z,2.02
2018-07-25T22:47:40.369Z,1.32
2018-07-25T22:50:12.113Z,1.72
2018-07-25T22:52:48.259Z,0.45
2018-07-25T22:55:24.822Z,1.75
2018-07-25T22:57:54.490Z,1.17
2018-07-25T23:00:34.763Z,1.67
2018-07-25T23:03:08.981Z,1.85
2018-07-25T23:05:41.065Z,1.07
2018-07-25T23:08:09.709Z,1.20
2018-07-25T23:10:47.816Z,2.37
2018-07-25T23:13:31.275Z,1.25
2018-07-25T23:16:02.532Z,1.62
2018-07-25T23:18:31.416Z,2.42
2018-07-25T23:21:05.550Z,1.85
2018-07-25T23:23:34.621Z,1.27
2018-07-25T23:26:08.789Z,1.72
2018-07-25T23:28:37.240Z,3.40
2018-07-25T23:31:11.383Z,2.65
2018-07-25T23:33:41.441Z,1.98
2018-07-25T23:36:11.407Z,1.40
2018-07-25T23:38:41.211Z,1.52
2018-07-25T23:41:21.520Z,3.10
2018-07-25T23:43:50.230Z,2.05
2018-07-25T23:46:24.459Z,1.98
2018-07-25T23:49:00.026Z,2.10
2018-07-25T23:51:29.188Z,1.75
2018-07-25T23:53:59.243Z,1.35
2018-07-25T23:56:33.292Z,2.27
2018-07-25T23:59:02.468Z,2.37
